createdAt,value
2017-07-27T00:00:02.305Z,25.45
2017-07-27T00:01:02.023Z,25.35
2017-07-27T00:02:02.358Z,25.36
2017-07-27T00:03:01.763Z,25.46
2017-07-27T00:04:02.107Z,25.45
2017-07-27T00:05:02.452Z,25.42
2017-07-27T00:06:02.475Z,25.43
2017-07-27T00:07:01.928Z,25.4
2017-07-27T00:08:02.521Z,25.4
2017-07-27T00:09:01.936Z,25.45
2017-07-27T00:10:02.589Z,25.39
2017-07-27T00:11:01.995Z,25.42
2017-07-27T00:12:02.331Z,25.42
2017-07-27T00:13:02.659Z,25.36
2017-07-27T00:14:02.404Z,25.36
2017-07-27T00:15:02.729Z,25.39
2017-07-27T00:16:02.758Z,25.36
2017-07-27T00:17:02.471Z,25.35
2017-07-27T00:18:02.748Z,25.32
2017-07-27T00:19:02.222Z,25.39
2017-07-27T00:20:02.555Z,25.33
2017-07-27T00:21:02.902Z,25.35
2017-07-27T00:22:02.616Z,25.39
2017-07-27T00:23:03.208Z,25.36
2017-07-27T00:24:02.664Z,25.39
2017-07-27T00:25:02.698Z,25.33
2017-07-27T00:26:03.039Z,25.38
2017-07-27T00:27:03.063Z,25.46
2017-07-27T00:28:03.084Z,25.43
2017-07-27T00:29:02.875Z,25.4
2017-07-27T00:30:02.840Z,25.38
2017-07-27T00:31:02.874Z,25.36
2017-07-27T00:32:03.216Z,25.3
2017-07-27T00:33:03.181Z,25.32
2017-07-27T00:34:02.953Z,25.35
2017-07-27T00:35:02.986Z,25.39
2017-07-27T00:36:03.026Z,25.32
2017-07-27T00:37:03.343Z,25.35
2017-07-27T00:38:03.359Z,25.23
2017-07-27T00:39:03.415Z,25.18
2017-07-27T00:40:03.126Z,25.36
2017-07-27T00:41:02.844Z,25.39
2017-07-27T00:42:03.487Z,25.35
2017-07-27T00:43:03.771Z,25.32
2017-07-27T00:44:03.251Z,25.33
2017-07-27T00:45:03.582Z,25.3
2017-07-27T00:46:03.297Z,25.21
2017-07-27T00:47:03.628Z,25.25
2017-07-27T00:48:03.604Z,25.25
2017-07-27T00:49:03.066Z,25.3
2017-07-27T00:50:03.718Z,25.3
2017-07-27T00:51:03.117Z,25.39
2017-07-27T00:52:03.459Z,25.27
2017-07-27T00:53:03.787Z,25.32
2017-07-27T00:54:03.517Z,25.32
2017-07-27T00:55:03.857Z,25.23
2017-07-27T00:56:03.266Z,25.27
2017-07-27T00:57:03.598Z,25.21
2017-07-27T00:58:04.244Z,25.32
2017-07-27T00:59:03.657Z,25.23
2017-07-27T01:00:03.689Z,25.35
2017-07-27T01:01:04.027Z,25.21
2017-07-27T01:02:03.751Z,25.3
2017-07-27T01:03:04.092Z,25.2
2017-07-27T01:04:03.798Z,25.25
2017-07-27T01:05:03.834Z,25.33
2017-07-27T01:06:04.167Z,25.2
2017-07-27T01:07:03.899Z,25.23
2017-07-27T01:08:04.224Z,25.2
2017-07-27T01:09:04.249Z,25.25
2017-07-27T01:10:04.277Z,25.2
2017-07-27T01:11:04.303Z,25.27
2017-07-27T01:12:04.051Z,25.2
2017-07-27T01:13:04.363Z,25.2
2017-07-27T01:14:03.769Z,25.2
2017-07-27T01:15:04.111Z,25.24
2017-07-27T01:16:04.443Z,25.17
2017-07-27T01:17:04.496Z,25.28
2017-07-27T01:18:04.508Z,25.25
2017-07-27T01:19:04.538Z,25.25
2017-07-27T01:20:03.943Z,25.23
2017-07-27T01:21:04.274Z,25.18
2017-07-27T01:22:04.307Z,25.23
2017-07-27T01:23:04.336Z,25.24
2017-07-27T01:24:04.365Z,25.21
2017-07-27T01:25:04.389Z,25.28
2017-07-27T01:26:04.726Z,25.32
2017-07-27T01:27:04.444Z,25.21
2017-07-27T01:28:04.788Z,25.21
2017-07-27T01:29:04.507Z,25.24
2017-07-27T01:30:04.847Z,25.17
2017-07-27T01:31:04.250Z,25.2
2017-07-27T01:32:04.908Z,25.25
2017-07-27T01:33:04.931Z,25.23
2017-07-27T01:34:04.328Z,25.24
2017-07-27T01:35:04.672Z,25.18
2017-07-27T01:36:04.690Z,25.17
2017-07-27T01:37:04.732Z,25.2
2017-07-27T01:38:04.440Z,25.21
2017-07-27T01:39:05.093Z,25.17
2017-07-27T01:40:04.817Z,25.2
2017-07-27T01:41:05.154Z,25.09
2017-07-27T01:42:04.867Z,25.27
2017-07-27T01:43:04.916Z,25.23
2017-07-27T01:44:05.243Z,25.13
2017-07-27T01:45:04.951Z,25.23
2017-07-27T01:46:04.975Z,25.24
2017-07-27T01:47:05.011Z,25.2
2017-07-27T01:48:05.032Z,25.2
2017-07-27T01:49:05.075Z,25.18
2017-07-27T01:50:04.776Z,25.13
2017-07-27T01:51:04.807Z,25.18
2017-07-27T01:52:05.463Z,25.15
2017-07-27T01:53:05.485Z,25.17
2017-07-27T01:54:05.207Z,25.08
2017-07-27T01:55:05.230Z,25.2
2017-07-27T01:56:05.571Z,25.18
2017-07-27T01:57:05.609Z,25.23
2017-07-27T01:58:05.005Z,25.23
2017-07-27T01:59:05.659Z,25.2
2017-07-27T02:00:05.681Z,25.08
2017-07-27T02:01:05.079Z,25.2
2017-07-27T02:02:05.428Z,25.18
2017-07-27T02:03:05.458Z,25.14
2017-07-27T02:04:05.733Z,25.17
2017-07-27T02:05:05.822Z,25.18
2017-07-27T02:06:05.543Z,25.21
2017-07-27T02:07:05.263Z,25.18
2017-07-27T02:08:05.601Z,25.15
2017-07-27T02:09:06.188Z,25.15
2017-07-27T02:10:05.342Z,25.2
2017-07-27T02:11:05.991Z,25.17
2017-07-27T02:12:05.707Z,25.18
2017-07-27T02:13:05.742Z,25.13
2017-07-27T02:14:05.711Z,25.1
2017-07-27T02:15:05.791Z,25.21
2017-07-27T02:16:05.506Z,25.21
2017-07-27T02:17:05.851Z,25.15
2017-07-27T02:18:05.887Z,25.13
2017-07-27T02:19:05.849Z,25.18
2017-07-27T02:20:06.237Z,25.1
2017-07-27T02:21:05.653Z,25.1
2017-07-27T02:22:05.986Z,25.17
2017-07-27T02:23:06.328Z,25.18
2017-07-27T02:24:06.658Z,25.08
2017-07-27T02:25:06.072Z,25.13
2017-07-27T02:26:05.791Z,25.14
2017-07-27T02:27:06.132Z,25.13
2017-07-27T02:28:06.152Z,25.13
2017-07-27T02:29:06.441Z,25.1
2017-07-27T02:30:05.900Z,25.2
2017-07-27T02:31:06.554Z,25.14
2017-07-27T02:32:05.982Z,25.14
2017-07-27T02:33:05.988Z,25.08
2017-07-27T02:34:06.575Z,25.15
2017-07-27T02:35:06.350Z,25.13
2017-07-27T02:36:06.698Z,25.15
2017-07-27T02:37:06.411Z,25.1
2017-07-27T02:38:06.444Z,25.09
2017-07-27T02:39:07.076Z,25.15
2017-07-27T02:40:06.187Z,25.09
2017-07-27T02:41:06.214Z,25.05
2017-07-27T02:42:06.239Z,25.14
2017-07-27T02:43:06.904Z,25.08
2017-07-27T02:44:06.861Z,25.13
2017-07-27T02:45:06.697Z,25.1
2017-07-27T02:46:06.983Z,25.13
2017-07-27T02:47:07.007Z,25.1
2017-07-27T02:48:06.736Z,25.09
2017-07-27T02:49:06.996Z,25.05
2017-07-27T02:50:06.785Z,25.05
2017-07-27T02:51:06.807Z,25.09
2017-07-27T02:52:06.510Z,25.06
2017-07-27T02:53:06.883Z,25
2017-07-27T02:54:06.824Z,25.03
2017-07-27T02:55:06.617Z,25.08
2017-07-27T02:56:06.943Z,25.06
2017-07-27T02:57:07.291Z,25.02
2017-07-27T02:58:07.004Z,25.03
2017-07-27T02:59:07.273Z,25.05
2017-07-27T03:00:06.784Z,25.08
2017-07-27T03:01:07.401Z,25.05
2017-07-27T03:02:07.423Z,25.02
2017-07-27T03:03:07.455Z,25.05
2017-07-27T03:04:07.777Z,25.02
2017-07-27T03:05:07.206Z,25.06
2017-07-27T03:06:07.223Z,25.03
2017-07-27T03:07:07.559Z,25
2017-07-27T03:08:07.282Z,25.05
2017-07-27T03:09:06.992Z,25
2017-07-27T03:10:07.021Z,25.06
2017-07-27T03:11:07.370Z,25.02
2017-07-27T03:12:07.403Z,25
2017-07-27T03:13:07.105Z,24.99
2017-07-27T03:14:07.752Z,25.03
2017-07-27T03:15:07.482Z,25
2017-07-27T03:16:07.193Z,25.03
2017-07-27T03:17:07.220Z,24.99
2017-07-27T03:18:07.560Z,25.06
2017-07-27T03:19:07.892Z,25
2017-07-27T03:20:07.929Z,24.99
2017-07-27T03:21:07.325Z,25.03
2017-07-27T03:22:07.675Z,25
2017-07-27T03:23:08.015Z,24.99
2017-07-27T03:24:08.031Z,25
2017-07-27T03:25:07.754Z,25
2017-07-27T03:26:08.093Z,25.02
2017-07-27T03:27:07.815Z,25.03
2017-07-27T03:28:08.150Z,24.99
2017-07-27T03:29:08.169Z,25.06
2017-07-27T03:30:08.202Z,24.96
2017-07-27T03:31:08.242Z,24.93
2017-07-27T03:32:07.952Z,24.98
2017-07-27T03:33:08.288Z,25
2017-07-27T03:34:08.325Z,24.99
2017-07-27T03:35:08.334Z,24.99
2017-07-27T03:36:08.069Z,24.99
2017-07-27T03:37:08.096Z,24.95
2017-07-27T03:38:07.803Z,25
2017-07-27T03:39:08.456Z,25.05
2017-07-27T03:40:08.741Z,24.98
2017-07-27T03:41:08.523Z,24.96
2017-07-27T03:42:07.916Z,25
2017-07-27T03:43:07.944Z,25.02
2017-07-27T03:44:08.280Z,24.98
2017-07-27T03:45:08.573Z,24.96
2017-07-27T03:46:08.339Z,25.03
2017-07-27T03:47:08.372Z,25.02
2017-07-27T03:48:08.400Z,25
2017-07-27T03:49:08.420Z,25
2017-07-27T03:50:08.705Z,24.99
2017-07-27T03:51:08.483Z,25.03
2017-07-27T03:52:08.511Z,25
2017-07-27T03:53:08.849Z,25.06
2017-07-27T03:54:08.254Z,25.06
2017-07-27T03:55:09.206Z,25.06
2017-07-27T03:56:08.930Z,25.08
2017-07-27T03:57:08.646Z,25
2017-07-27T03:58:08.364Z,25.06
2017-07-27T03:59:08.708Z,25.03
2017-07-27T04:00:09.347Z,25.06
2017-07-27T04:01:08.450Z,25.02
2017-07-27T04:02:09.097Z,25.03
2017-07-27T04:03:09.125Z,25
2017-07-27T04:04:09.163Z,24.99
2017-07-27T04:05:09.125Z,25.02
2017-07-27T04:06:08.899Z,25.06
2017-07-27T04:07:08.932Z,25.05
2017-07-27T04:08:09.272Z,25.08
2017-07-27T04:09:08.982Z,25.03
2017-07-27T04:10:08.955Z,25.03
2017-07-27T04:11:08.726Z,25.13
2017-07-27T04:12:09.071Z,25.03
2017-07-27T04:13:09.405Z,25.06
2017-07-27T04:14:08.818Z,25.05
2017-07-27T04:15:09.766Z,25.05
2017-07-27T04:16:09.207Z,25.09
2017-07-27T04:17:08.904Z,25.09
2017-07-27T04:18:09.543Z,25.1
2017-07-27T04:19:08.953Z,25.06
2017-07-27T04:20:09.234Z,25.09
2017-07-27T04:21:09.326Z,25.15
2017-07-27T04:22:09.359Z,25.06
2017-07-27T04:23:09.065Z,25.13
2017-07-27T04:24:09.410Z,25.13
2017-07-27T04:25:10.014Z,25.1
2017-07-27T04:26:09.463Z,25.09
2017-07-27T04:27:09.488Z,25.06
2017-07-27T04:28:09.513Z,25.02
2017-07-27T04:29:09.855Z,25.1
2017-07-27T04:30:09.829Z,25.08
2017-07-27T04:31:09.911Z,25.06
2017-07-27T04:32:09.630Z,25.14
2017-07-27T04:33:09.964Z,25.14
2017-07-27T04:34:09.997Z,25.15
2017-07-27T04:35:10.012Z,25.15
2017-07-27T04:36:09.430Z,25.13
2017-07-27T04:37:09.452Z,25.15
2017-07-27T04:38:09.489Z,25.15
2017-07-27T04:39:10.140Z,25.1
2017-07-27T04:40:10.161Z,25.08
2017-07-27T04:41:10.195Z,25.13
2017-07-27T04:42:09.903Z,25.09
2017-07-27T04:43:09.937Z,25.14
2017-07-27T04:44:09.656Z,25.09
2017-07-27T04:45:09.994Z,25.13
2017-07-27T04:46:10.031Z,25.18
2017-07-27T04:47:10.364Z,25.1
2017-07-27T04:48:10.076Z,25.13
2017-07-27T04:49:10.428Z,25.15
2017-07-27T04:50:10.451Z,25.06
2017-07-27T04:51:10.481Z,25.13
2017-07-27T04:52:10.193Z,25.14
2017-07-27T04:53:10.212Z,25.17
2017-07-27T04:54:10.245Z,25.1
2017-07-27T04:55:10.588Z,25.06
2017-07-27T04:56:10.619Z,25.17
2017-07-27T04:57:10.022Z,25.05
2017-07-27T04:58:10.373Z,25.08
2017-07-27T04:59:10.394Z,25.15
2017-07-27T05:00:10.726Z,25.14
2017-07-27T05:01:10.755Z,25.17
2017-07-27T05:02:10.150Z,25.14
2017-07-27T05:03:10.813Z,25.13
2017-07-27T05:04:10.846Z,25.13
2017-07-27T05:05:10.553Z,25.15
2017-07-27T05:06:10.526Z,25.15
2017-07-27T05:07:10.309Z,25.14
2017-07-27T05:08:10.948Z,25.09
2017-07-27T05:09:10.706Z,25.08
2017-07-27T05:10:11.005Z,25.1
2017-07-27T05:11:11.027Z,25.15
2017-07-27T05:12:11.060Z,25.08
2017-07-27T05:13:11.084Z,25.15
2017-07-27T05:14:10.809Z,25.09
2017-07-27T05:15:10.839Z,25.13
2017-07-27T05:16:11.119Z,25.05
2017-07-27T05:17:10.579Z,25.14
2017-07-27T05:18:10.596Z,25.08
2017-07-27T05:19:11.257Z,25.09
2017-07-27T05:20:10.659Z,25.15
2017-07-27T05:21:11.275Z,25.09
2017-07-27T05:22:10.717Z,25.15
2017-07-27T05:23:11.065Z,25.1
2017-07-27T05:24:11.086Z,25.18
2017-07-27T05:25:11.134Z,25.15
2017-07-27T05:26:11.399Z,25.15
2017-07-27T05:27:11.164Z,25.14
2017-07-27T05:28:11.197Z,25.1
2017-07-27T05:29:11.538Z,25.17
2017-07-27T05:30:11.559Z,25.18
2017-07-27T05:31:11.855Z,25.13
2017-07-27T05:32:11.617Z,25.09
2017-07-27T05:33:11.349Z,25.14
2017-07-27T05:34:11.682Z,25.18
2017-07-27T05:35:11.399Z,25.1
2017-07-27T05:36:11.367Z,25.1
2017-07-27T05:37:11.460Z,25.14
2017-07-27T05:38:11.485Z,25.1
2017-07-27T05:39:11.530Z,25.17
2017-07-27T05:40:11.531Z,25.09
2017-07-27T05:41:11.550Z,25.13
2017-07-27T05:42:11.915Z,25.18
2017-07-27T05:43:11.937Z,25.18
2017-07-27T05:44:11.649Z,25.15
2017-07-27T05:45:11.362Z,25.13
2017-07-27T05:46:11.953Z,25.13
2017-07-27T05:47:11.728Z,25.09
2017-07-27T05:48:12.069Z,25.13
2017-07-27T05:49:11.784Z,25.1
2017-07-27T05:50:12.120Z,25.1
2017-07-27T05:51:12.402Z,25.14
2017-07-27T05:52:12.184Z,25.09
2017-07-27T05:53:11.589Z,25.09
2017-07-27T05:54:11.929Z,25.14
2017-07-27T05:55:12.267Z,25.14
2017-07-27T05:56:12.602Z,25.06
2017-07-27T05:57:12.322Z,25.17
2017-07-27T05:58:11.728Z,25.1
2017-07-27T05:59:12.067Z,25.1
2017-07-27T06:00:12.093Z,25.06
2017-07-27T06:01:12.690Z,25.08
2017-07-27T06:02:12.464Z,25.1
2017-07-27T06:03:12.185Z,25.08
2017-07-27T06:04:12.209Z,25.13
2017-07-27T06:05:12.546Z,25.14
2017-07-27T06:06:12.519Z,25.14
2017-07-27T06:07:12.606Z,25.15
2017-07-27T06:08:12.327Z,25.13
2017-07-27T06:09:12.660Z,25.13
2017-07-27T06:10:12.377Z,25.1
2017-07-27T06:11:13.022Z,25.13
2017-07-27T06:12:12.122Z,25.15
2017-07-27T06:13:12.463Z,25.14
2017-07-27T06:14:12.800Z,25.18
2017-07-27T06:15:12.514Z,25.18
2017-07-27T06:16:13.158Z,25.14
2017-07-27T06:17:12.890Z,25.18
2017-07-27T06:18:12.921Z,25.14
2017-07-27T06:19:12.321Z,25.23
2017-07-27T06:20:12.974Z,25.17
2017-07-27T06:21:12.996Z,25.14
2017-07-27T06:22:12.406Z,25.08
2017-07-27T06:23:12.741Z,25.18
2017-07-27T06:24:13.090Z,25.15
2017-07-27T06:25:12.798Z,25.08
2017-07-27T06:26:12.833Z,25.17
2017-07-27T06:27:12.542Z,25.18
2017-07-27T06:28:12.891Z,25.15
2017-07-27T06:29:12.910Z,25.23
2017-07-27T06:30:12.939Z,25.13
2017-07-27T06:31:13.282Z,25.13
2017-07-27T06:32:12.992Z,25.21
2017-07-27T06:33:13.033Z,25.21
2017-07-27T06:34:13.362Z,25.1
2017-07-27T06:35:13.390Z,25.15
2017-07-27T06:36:12.824Z,25.13
2017-07-27T06:37:13.132Z,25.2
2017-07-27T06:38:13.168Z,25.1
2017-07-27T06:39:13.502Z,25.15
2017-07-27T06:40:13.530Z,25.08
2017-07-27T06:41:13.238Z,25.1
2017-07-27T06:42:12.963Z,25.13
2017-07-27T06:43:12.993Z,25.18
2017-07-27T06:44:13.332Z,25.2
2017-07-27T06:45:13.675Z,25.13
2017-07-27T06:46:13.075Z,25.15
2017-07-27T06:47:13.732Z,25.23
2017-07-27T06:48:13.447Z,25.18
2017-07-27T06:49:13.780Z,25.2
2017-07-27T06:50:13.507Z,25.24
2017-07-27T06:51:13.223Z,25.15
2017-07-27T06:52:13.868Z,25.18
2017-07-27T06:53:13.580Z,25.28
2017-07-27T06:54:13.302Z,25.25
2017-07-27T06:55:13.324Z,25.23
2017-07-27T06:56:13.984Z,25.21
2017-07-27T06:57:13.702Z,25.25
2017-07-27T06:58:14.040Z,25.2
2017-07-27T06:59:13.757Z,25.25
2017-07-27T07:00:13.791Z,25.27
2017-07-27T07:01:13.811Z,25.25
2017-07-27T07:02:14.152Z,25.24
2017-07-27T07:03:14.175Z,25.27
2017-07-27T07:04:13.902Z,25.23
2017-07-27T07:05:14.231Z,25.23
2017-07-27T07:06:13.640Z,25.18
2017-07-27T07:07:14.320Z,25.2
2017-07-27T07:08:14.317Z,25.23
2017-07-27T07:09:14.353Z,25.18
2017-07-27T07:10:14.070Z,25.23
2017-07-27T07:11:14.103Z,25.25
2017-07-27T07:12:14.431Z,25.28
2017-07-27T07:13:14.469Z,25.38
2017-07-27T07:14:14.494Z,25.39
2017-07-27T07:15:13.911Z,25.38
2017-07-27T07:16:14.237Z,25.38
2017-07-27T07:17:14.292Z,25.43
2017-07-27T07:18:14.601Z,25.45
2017-07-27T07:19:14.325Z,25.36
2017-07-27T07:20:14.035Z,25.42
2017-07-27T07:21:14.063Z,25.33
2017-07-27T07:22:14.964Z,25.35
2017-07-27T07:23:14.433Z,25.35
2017-07-27T07:24:14.774Z,25.39
2017-07-27T07:25:14.806Z,25.33
2017-07-27T07:26:14.207Z,25.33
2017-07-27T07:27:14.536Z,25.39
2017-07-27T07:28:14.572Z,25.38
2017-07-27T07:29:14.601Z,25.33
2017-07-27T07:30:14.647Z,25.38
2017-07-27T07:31:14.971Z,25.4
2017-07-27T07:32:15.252Z,25.45
2017-07-27T07:33:14.410Z,25.45
2017-07-27T07:34:15.050Z,25.39
2017-07-27T07:35:14.774Z,25.4
2017-07-27T07:36:14.492Z,25.4
2017-07-27T07:37:15.128Z,25.52
2017-07-27T07:38:14.860Z,25.45
2017-07-27T07:39:15.197Z,25.54
2017-07-27T07:40:14.602Z,25.46
2017-07-27T07:41:15.266Z,25.46
2017-07-27T07:42:15.219Z,25.46
2017-07-27T07:43:15.029Z,25.52
2017-07-27T07:44:15.335Z,25.46
2017-07-27T07:45:15.379Z,25.45
2017-07-27T07:46:15.086Z,25.42
2017-07-27T07:47:15.364Z,25.4
2017-07-27T07:48:14.832Z,25.35
2017-07-27T07:49:15.162Z,25.42
2017-07-27T07:50:14.883Z,25.45
2017-07-27T07:51:15.229Z,25.38
2017-07-27T07:52:15.560Z,25.39
2017-07-27T07:53:15.593Z,25.39
2017-07-27T07:54:15.009Z,25.42
2017-07-27T07:55:15.651Z,25.32
2017-07-27T07:56:15.367Z,25.35
2017-07-27T07:57:16.008Z,25.35
2017-07-27T07:58:15.730Z,25.35
2017-07-27T07:59:15.766Z,25.39
2017-07-27T08:00:15.794Z,25.33
2017-07-27T08:01:15.827Z,25.39
2017-07-27T08:02:16.157Z,25.39
2017-07-27T08:03:15.886Z,25.33
2017-07-27T08:04:15.598Z,25.43
2017-07-27T08:05:15.623Z,25.46
2017-07-27T08:06:15.963Z,25.38
2017-07-27T08:07:15.688Z,25.4
2017-07-27T08:08:16.013Z,25.38
2017-07-27T08:09:15.742Z,25.42
2017-07-27T08:10:15.762Z,25.5
2017-07-27T08:11:16.107Z,25.42
2017-07-27T08:12:16.139Z,25.35
2017-07-27T08:13:15.844Z,25.36
2017-07-27T08:14:15.573Z,25.35
2017-07-27T08:15:16.250Z,25.5
2017-07-27T08:16:15.639Z,25.38
2017-07-27T08:17:16.280Z,25.39
2017-07-27T08:18:16.317Z,25.42
2017-07-27T08:19:16.021Z,25.46
2017-07-27T08:20:16.055Z,25.45
2017-07-27T08:21:16.391Z,25.45
2017-07-27T08:22:16.420Z,25.45
2017-07-27T08:23:16.129Z,25.4
2017-07-27T08:24:16.474Z,25.5
2017-07-27T08:25:16.498Z,25.39
2017-07-27T08:26:16.527Z,25.47
2017-07-27T08:27:16.556Z,25.51
2017-07-27T08:28:16.277Z,25.42
2017-07-27T08:29:16.316Z,25.43
2017-07-27T08:30:16.335Z,25.42
2017-07-27T08:31:16.360Z,25.5
2017-07-27T08:32:16.392Z,25.55
2017-07-27T08:33:16.734Z,25.39
2017-07-27T08:34:16.754Z,25.43
2017-07-27T08:35:16.794Z,25.47
2017-07-27T08:36:16.825Z,25.46
2017-07-27T08:37:16.537Z,25.5
2017-07-27T08:38:16.253Z,25.47
2017-07-27T08:39:16.602Z,25.47
2017-07-27T08:40:16.307Z,25.51
2017-07-27T08:41:16.647Z,25.46
2017-07-27T08:42:16.667Z,25.43
2017-07-27T08:43:16.700Z,25.61
2017-07-27T08:44:17.058Z,25.45
2017-07-27T08:45:17.071Z,25.46
2017-07-27T08:46:17.101Z,25.46
2017-07-27T08:47:17.132Z,25.46
2017-07-27T08:48:16.850Z,25.51
2017-07-27T08:49:17.191Z,25.62
2017-07-27T08:50:16.595Z,25.47
2017-07-27T08:51:16.935Z,25.51
2017-07-27T08:52:16.960Z,25.55
2017-07-27T08:53:16.992Z,25.46
2017-07-27T08:54:17.337Z,25.57
2017-07-27T08:55:17.366Z,25.54
2017-07-27T08:56:16.768Z,25.42
2017-07-27T08:57:17.101Z,25.43
2017-07-27T08:58:17.433Z,25.52
2017-07-27T08:59:17.481Z,25.43
2017-07-27T09:00:17.503Z,25.45
2017-07-27T09:01:17.539Z,25.46
2017-07-27T09:02:17.248Z,25.5
2017-07-27T09:03:17.845Z,25.51
2017-07-27T09:04:17.626Z,25.43
2017-07-27T09:05:17.021Z,25.52
2017-07-27T09:06:17.675Z,25.52
2017-07-27T09:07:17.706Z,25.46
2017-07-27T09:08:17.723Z,25.54
2017-07-27T09:09:17.787Z,25.52
2017-07-27T09:10:17.474Z,25.47
2017-07-27T09:11:17.504Z,25.4
2017-07-27T09:12:17.540Z,25.52
2017-07-27T09:13:17.501Z,25.5
2017-07-27T09:14:17.592Z,25.39
2017-07-27T09:15:17.611Z,25.45
2017-07-27T09:16:17.652Z,25.4
2017-07-27T09:17:17.679Z,25.47
2017-07-27T09:18:18.260Z,25.4
2017-07-27T09:19:17.735Z,25.38
2017-07-27T09:20:17.445Z,25.38
2017-07-27T09:21:18.123Z,25.35
2017-07-27T09:22:17.820Z,25.32
2017-07-27T09:23:18.405Z,25.38
2017-07-27T09:24:17.566Z,25.33
2017-07-27T09:25:18.206Z,25.3
2017-07-27T09:26:17.933Z,25.32
2017-07-27T09:27:17.960Z,25.36
2017-07-27T09:28:18.240Z,25.36
2017-07-27T09:29:17.706Z,25.43
2017-07-27T09:30:18.043Z,25.36
2017-07-27T09:31:18.095Z,25.46
2017-07-27T09:32:18.420Z,25.35
2017-07-27T09:33:18.388Z,25.38
2017-07-27T09:34:18.474Z,25.35
2017-07-27T09:35:18.198Z,25.43
2017-07-27T09:36:18.523Z,25.45
2017-07-27T09:37:18.548Z,25.35
2017-07-27T09:38:18.836Z,25.42
2017-07-27T09:39:18.303Z,25.46
2017-07-27T09:40:18.649Z,25.46
2017-07-27T09:41:18.671Z,25.46
2017-07-27T09:42:18.704Z,25.46
2017-07-27T09:43:18.668Z,25.46
2017-07-27T09:44:18.447Z,25.52
2017-07-27T09:45:18.474Z,25.5
2017-07-27T09:46:18.196Z,25.5
2017-07-27T09:47:18.851Z,25.51
2017-07-27T09:48:19.120Z,25.55
2017-07-27T09:49:18.581Z,25.58
2017-07-27T09:50:18.622Z,25.61
2017-07-27T09:51:18.660Z,25.55
2017-07-27T09:52:18.680Z,25.58
2017-07-27T09:53:19.003Z,25.57
2017-07-27T09:54:18.730Z,25.64
2017-07-27T09:55:19.071Z,25.55
2017-07-27T09:56:19.103Z,25.67
2017-07-27T09:57:19.128Z,25.64
2017-07-27T09:58:19.104Z,25.72
2017-07-27T09:59:18.885Z,25.73
2017-07-27T10:00:18.899Z,25.73
2017-07-27T10:01:18.933Z,25.73
2017-07-27T10:02:19.273Z,25.79
2017-07-27T10:03:19.604Z,25.79
2017-07-27T10:04:19.325Z,25.88
2017-07-27T10:05:19.042Z,25.87
2017-07-27T10:06:19.083Z,25.9
2017-07-27T10:07:19.411Z,25.95
2017-07-27T10:08:19.131Z,25.94
2017-07-27T10:09:19.476Z,25.97
2017-07-27T10:10:18.869Z,25.91
2017-07-27T10:11:18.904Z,25.9
2017-07-27T10:12:19.238Z,25.88
2017-07-27T10:13:19.580Z,25.9
2017-07-27T10:14:19.305Z,25.91
2017-07-27T10:15:19.646Z,25.9
2017-07-27T10:16:19.671Z,25.9
2017-07-27T10:17:19.075Z,25.83
2017-07-27T10:18:19.409Z,25.94
2017-07-27T10:19:19.134Z,25.85
2017-07-27T10:20:19.474Z,25.95
2017-07-27T10:21:19.811Z,25.94
2017-07-27T10:22:19.852Z,26.01
2017-07-27T10:23:19.253Z,25.91
2017-07-27T10:24:20.155Z,26.01
2017-07-27T10:25:19.310Z,25.9
2017-07-27T10:26:19.341Z,25.91
2017-07-27T10:27:19.675Z,25.87
2017-07-27T10:28:19.719Z,25.88
2017-07-27T10:29:19.991Z,25.87
2017-07-27T10:30:20.085Z,25.95
2017-07-27T10:31:19.795Z,25.94
2017-07-27T10:32:19.819Z,25.9
2017-07-27T10:33:20.164Z,25.9
2017-07-27T10:34:20.190Z,25.94
2017-07-27T10:35:20.222Z,25.87
2017-07-27T10:36:19.942Z,25.85
2017-07-27T10:37:20.290Z,25.87
2017-07-27T10:38:20.309Z,25.97
2017-07-27T10:39:20.590Z,25.9
2017-07-27T10:40:20.053Z,25.88
2017-07-27T10:41:20.087Z,25.87
2017-07-27T10:42:20.121Z,25.87
2017-07-27T10:43:19.834Z,25.95
2017-07-27T10:44:20.784Z,26.02
2017-07-27T10:45:20.198Z,25.92
2017-07-27T10:46:20.537Z,25.92
2017-07-27T10:47:20.261Z,26.05
2017-07-27T10:48:20.600Z,26.05
2017-07-27T10:49:20.562Z,26.06
2017-07-27T10:50:20.343Z,26.02
2017-07-27T10:51:20.376Z,26.02
2017-07-27T10:52:20.710Z,26.02
2017-07-27T10:53:20.131Z,26.06
2017-07-27T10:54:20.714Z,26.05
2017-07-27T10:55:20.175Z,26.07
2017-07-27T10:56:20.539Z,26.01
2017-07-27T10:57:20.544Z,26.01
2017-07-27T10:58:20.881Z,26.06
2017-07-27T10:59:20.852Z,26.06
2017-07-27T11:00:20.938Z,26.06
2017-07-27T11:01:20.655Z,26.1
2017-07-27T11:02:21.009Z,26.05
2017-07-27T11:03:20.725Z,26.01
2017-07-27T11:04:20.681Z,26.15
2017-07-27T11:05:20.775Z,26.05
2017-07-27T11:06:20.808Z,26.02
2017-07-27T11:07:21.136Z,26.07
2017-07-27T11:08:21.176Z,26.1
2017-07-27T11:09:21.138Z,26.07
2017-07-27T11:10:20.608Z,26.15
2017-07-27T11:11:20.639Z,26.13
2017-07-27T11:12:21.293Z,26.07
2017-07-27T11:13:21.317Z,26.1
2017-07-27T11:14:21.653Z,26.1
2017-07-27T11:15:21.374Z,26.17
2017-07-27T11:16:21.094Z,26.06
2017-07-27T11:17:21.441Z,26.23
2017-07-27T11:18:21.460Z,26.1
2017-07-27T11:19:21.748Z,26.13
2017-07-27T11:20:21.215Z,26.12
2017-07-27T11:21:21.552Z,26.12
2017-07-27T11:22:20.981Z,26.13
2017-07-27T11:23:21.298Z,26.06
2017-07-27T11:24:21.582Z,26.01
2017-07-27T11:25:21.367Z,26.07
2017-07-27T11:26:21.701Z,26.09
2017-07-27T11:27:21.412Z,26.07
2017-07-27T11:28:21.441Z,26.02
2017-07-27T11:29:21.775Z,26.09
2017-07-27T11:30:21.823Z,26.06
2017-07-27T11:31:21.848Z,26.07
2017-07-27T11:32:21.557Z,25.94
2017-07-27T11:33:21.893Z,26.06
2017-07-27T11:34:21.882Z,26.01
2017-07-27T11:35:21.656Z,26.05
2017-07-27T11:36:21.676Z,26.07
2017-07-27T11:37:21.708Z,26.06
2017-07-27T11:38:22.045Z,25.97
2017-07-27T11:39:22.018Z,26.05
2017-07-27T11:40:21.787Z,26.09
2017-07-27T11:41:22.132Z,26.07
2017-07-27T11:42:21.538Z,26.07
2017-07-27T11:43:22.217Z,26.01
2017-07-27T11:44:22.517Z,26.06
2017-07-27T11:45:21.939Z,26.02
2017-07-27T11:46:22.327Z,26.06
2017-07-27T11:47:22.000Z,26.09
2017-07-27T11:48:22.044Z,26.07
2017-07-27T11:49:22.057Z,26.07
2017-07-27T11:50:22.401Z,26.09
2017-07-27T11:51:22.432Z,26.09
2017-07-27T11:52:22.141Z,26.05
2017-07-27T11:53:22.519Z,26.02
2017-07-27T11:54:22.198Z,26.09
2017-07-27T11:55:22.548Z,26.02
2017-07-27T11:56:22.580Z,26.12
2017-07-27T11:57:22.304Z,26.05
2017-07-27T11:58:22.321Z,26.06
2017-07-27T11:59:22.346Z,26.09
2017-07-27T12:00:22.055Z,25.99
2017-07-27T12:01:22.400Z,26.1
2017-07-27T12:02:22.434Z,26.07
2017-07-27T12:03:22.773Z,26.1
2017-07-27T12:04:22.181Z,26.12
2017-07-27T12:05:22.208Z,26.06
2017-07-27T12:06:22.548Z,26.05
2017-07-27T12:07:22.276Z,26.13
2017-07-27T12:08:22.615Z,26.12
2017-07-27T12:09:22.635Z,26.13
2017-07-27T12:10:22.673Z,26.1
2017-07-27T12:11:22.687Z,26.1
2017-07-27T12:12:23.049Z,26.07
2017-07-27T12:13:22.442Z,26.1
2017-07-27T12:14:22.781Z,26.12
2017-07-27T12:15:22.803Z,26.21
2017-07-27T12:16:22.832Z,26.32
2017-07-27T12:17:22.896Z,26.32
2017-07-27T12:18:23.203Z,26.43
2017-07-27T12:19:23.242Z,26.57
2017-07-27T12:20:23.271Z,26.62
2017-07-27T12:21:22.984Z,26.65
2017-07-27T12:22:23.329Z,26.76
2017-07-27T12:23:23.357Z,26.8
2017-07-27T12:24:23.382Z,26.99
2017-07-27T12:25:23.427Z,26.99
2017-07-27T12:26:22.827Z,27.12
2017-07-27T12:27:23.161Z,27.13
2017-07-27T12:28:23.199Z,27.22
2017-07-27T12:29:23.219Z,27.24
2017-07-27T12:30:23.246Z,27.28
2017-07-27T12:31:23.275Z,27.4
2017-07-27T12:32:23.625Z,27.32
2017-07-27T12:33:23.654Z,27.54
2017-07-27T12:34:23.374Z,27.54
2017-07-27T12:35:23.728Z,27.59
2017-07-27T12:36:23.753Z,27.65
2017-07-27T12:37:23.777Z,27.66
2017-07-27T12:38:23.489Z,27.82
2017-07-27T12:39:23.838Z,27.79
2017-07-27T12:40:23.254Z,27.93
2017-07-27T12:41:23.587Z,27.88
2017-07-27T12:42:23.623Z,27.93
2017-07-27T12:43:23.963Z,27.97
2017-07-27T12:44:23.681Z,27.92
2017-07-27T12:45:23.647Z,27.97
2017-07-27T12:46:24.057Z,28.11
2017-07-27T12:47:23.456Z,28.18
2017-07-27T12:48:23.492Z,28.24
2017-07-27T12:49:23.530Z,28.37
2017-07-27T12:50:24.477Z,28.39
2017-07-27T12:51:23.892Z,28.48
2017-07-27T12:52:23.620Z,28.48
2017-07-27T12:53:23.648Z,28.64
2017-07-27T12:54:23.987Z,28.7
2017-07-27T12:55:24.583Z,28.78
2017-07-27T12:56:24.063Z,28.89
2017-07-27T12:57:24.391Z,29.02